createdAt,value
2022-12-23T00:00:41.565Z,97193.56
2022-12-23T00:03:09.566Z,97191.69
2022-12-23T00:05:38.817Z,97195.09
2022-12-23T00:08:08.209Z,97183.28
2022-12-23T00:10:38.418Z,97187.41
2022-12-23T00:13:06.633Z,97178.69
2022-12-23T00:15:34.767Z,97187.06
2022-12-23T00:18:03.844Z,97182.84
2022-12-23T00:20:32.564Z,97175.19
2022-12-23T00:23:00.176Z,97183.22
2022-12-23T00:25:29.145Z,97169.06
2022-12-23T00:27:56.933Z,97159.97
2022-12-23T00:30:25.101Z,97166.84
2022-12-23T00:32:54.129Z,97174.16
2022-12-23T00:35:21.740Z,97161.94
2022-12-23T00:37:51.378Z,97158.53
2022-12-23T00:40:19.325Z,97168.81
2022-12-23T00:42:48.294Z,97157.72
2022-12-23T00:45:16.221Z,97161.91
2022-12-23T00:47:45.208Z,97165.38
2022-12-23T00:50:12.760Z,97158.91
2022-12-23T00:52:41.821Z,97164.66
2022-12-23T00:55:09.777Z,97166.19
2022-12-23T00:57:37.509Z,97166.56
2022-12-23T01:00:09.545Z,97168.47
2022-12-23T01:02:39.703Z,97161.53
2022-12-23T01:05:11.058Z,97161.59
2022-12-23T01:07:38.687Z,97158.56
2022-12-23T01:10:06.982Z,97161.59
2022-12-23T01:12:34.599Z,97164.63
2022-12-23T01:15:02.229Z,97168.34
2022-12-23T01:17:31.595Z,97178.31
2022-12-23T01:19:59.237Z,97182.94
2022-12-23T01:22:28.003Z,97176.03
2022-12-23T01:24:55.619Z,97171.16
2022-12-23T01:27:23.402Z,97174.16
2022-12-23T01:29:51.050Z,97171.88
2022-12-23T01:32:18.955Z,97181.69
2022-12-23T01:34:47.997Z,97187.41
2022-12-23T01:37:15.677Z,97182.84
2022-12-23T01:39:46.298Z,97178.19
2022-12-23T01:42:14.698Z,97185.91
2022-12-23T01:44:55.719Z,97177.53
2022-12-23T01:47:31.384Z,97184.84
2022-12-23T01:50:06.230Z,97183.72
2022-12-23T01:52:40.851Z,97189.09
2022-12-23T01:55:09.951Z,97189.47
2022-12-23T01:57:42.724Z,97184.88
2022-12-23T02:00:11.395Z,97170.72
2022-12-23T02:02:42.651Z,97171.09
2022-12-23T02:05:12.287Z,97168.50
2022-12-23T02:07:40.472Z,97186.44
2022-12-23T02:10:09.377Z,97177.69
2022-12-23T02:12:48.562Z,97165.06
2022-12-23T02:15:29.968Z,97170.06
2022-12-23T02:18:25.271Z,97161.28
2022-12-23T02:21:16.564Z,97150.56
2022-12-23T02:24:20.662Z,97162.78
2022-12-23T02:27:05.985Z,97168.50
2022-12-23T02:30:06.582Z,97162.03
2022-12-23T02:32:50.944Z,97157.84
2022-12-23T02:35:30.913Z,97154.00
2022-12-23T02:38:09.045Z,97162.72
2022-12-23T02:40:44.254Z,97174.59
2022-12-23T02:43:19.401Z,97176.13
2022-12-23T02:45:56.754Z,97175.75
2022-12-23T02:48:35.555Z,97183.06
2022-12-23T02:51:07.410Z,97165.09
2022-12-23T02:53:43.087Z,97165.44
2022-12-23T02:56:15.078Z,97169.28
2022-12-23T02:58:55.591Z,97169.31
2022-12-23T03:01:27.683Z,97166.63
2022-12-23T03:03:56.979Z,97158.19
2022-12-23T03:06:31.475Z,97160.13
2022-12-23T03:09:03.576Z,97187.31
2022-12-23T03:11:43.205Z,97172.78
2022-12-23T03:14:32.151Z,97167.81
2022-12-23T03:17:17.818Z,97165.44
2022-12-23T03:19:54.105Z,97163.94
2022-12-23T03:22:32.385Z,97153.88
2022-12-23T03:25:08.734Z,97151.63
2022-12-23T03:27:43.114Z,97151.47
2022-12-23T03:30:14.866Z,97151.78
2022-12-23T03:32:49.437Z,97143.69
2022-12-23T03:35:28.017Z,97150.41
2022-12-23T03:37:59.306Z,97162.97
2022-12-23T03:40:35.257Z,97164.25
2022-12-23T03:43:09.093Z,97145.47
2022-12-23T03:45:43.209Z,97138.41
2022-12-23T03:48:23.010Z,97147.09
2022-12-23T03:50:57.711Z,97137.88
2022-12-23T03:53:31.954Z,97140.09
2022-12-23T03:56:06.165Z,97142.88
2022-12-23T03:58:39.951Z,97143.41
2022-12-23T04:01:18.207Z,97147.75
2022-12-23T04:04:00.704Z,97143.31
2022-12-23T04:06:41.635Z,97147.91
2022-12-23T04:09:15.398Z,97150.00
2022-12-23T04:11:46.686Z,97156.81
2022-12-23T04:14:17.551Z,97148.84
2022-12-23T04:16:46.050Z,97146.53
2022-12-23T04:19:13.765Z,97140.53
2022-12-23T04:21:46.301Z,97146.38
2022-12-23T04:24:14.338Z,97143.97
2022-12-23T04:26:42.228Z,97141.03
2022-12-23T04:29:09.951Z,97148.72
2022-12-23T04:31:37.771Z,97149.25
2022-12-23T04:34:05.539Z,97145.06
2022-12-23T04:36:33.260Z,97141.28
2022-12-23T04:39:02.326Z,97144.31
2022-12-23T04:41:31.260Z,97141.31
2022-12-23T04:44:03.320Z,97153.94
2022-12-23T04:46:31.095Z,97150.88
2022-12-23T04:48:58.791Z,97141.75
2022-12-23T04:51:26.566Z,97152.78
2022-12-23T04:53:54.271Z,97161.88
2022-12-23T04:56:23.260Z,97158.44
2022-12-23T04:58:52.462Z,97159.16
2022-12-23T05:01:20.220Z,97157.63
2022-12-23T05:03:47.880Z,97159.66
2022-12-23T05:06:15.567Z,97165.03
2022-12-23T05:08:44.564Z,97154.97
2022-12-23T05:11:12.343Z,97155.84
2022-12-23T05:13:41.337Z,97159.28
2022-12-23T05:16:09.158Z,97157.84
2022-12-23T05:18:36.814Z,97168.03
2022-12-23T05:21:05.273Z,97169.13
2022-12-23T05:23:33.283Z,97174.97
2022-12-23T05:26:01.056Z,97176.81
2022-12-23T05:28:29.502Z,97170.91
2022-12-23T05:30:59.791Z,97174.81
2022-12-23T05:33:28.129Z,97177.03
2022-12-23T05:35:56.785Z,97178.53
2022-12-23T05:38:25.196Z,97173.91
2022-12-23T05:40:53.082Z,97171.56
2022-12-23T05:43:20.934Z,97164.75
2022-12-23T05:45:50.174Z,97157.72
2022-12-23T05:48:19.299Z,97164.34
2022-12-23T05:50:49.227Z,97160.59
2022-12-23T05:53:18.320Z,97153.78
2022-12-23T05:55:46.728Z,97143.34
2022-12-23T05:58:14.502Z,97131.75
2022-12-23T06:00:42.336Z,97146.34
2022-12-23T06:03:10.937Z,97145.00
2022-12-23T06:05:40.550Z,97148.91
2022-12-23T06:08:08.234Z,97145.66
2022-12-23T06:10:35.912Z,97147.13
2022-12-23T06:13:03.591Z,97158.66
2022-12-23T06:15:31.512Z,97158.31
2022-12-23T06:18:01.468Z,97155.84
2022-12-23T06:20:30.084Z,97165.66
2022-12-23T06:22:59.257Z,97154.78
2022-12-23T06:25:26.900Z,97164.28
2022-12-23T06:27:54.547Z,97160.94
2022-12-23T06:30:22.462Z,97155.38
2022-12-23T06:32:50.386Z,97148.84
2022-12-23T06:35:18.620Z,97141.16
2022-12-23T06:37:46.212Z,97149.19
2022-12-23T06:40:15.594Z,97159.25
2022-12-23T06:42:43.216Z,97166.56
2022-12-23T06:45:11.346Z,97171.59
2022-12-23T06:47:39.159Z,97193.72
2022-12-23T06:50:07.715Z,97190.03
2022-12-23T06:52:35.587Z,97185.13
2022-12-23T06:55:03.708Z,97186.53
2022-12-23T06:57:32.797Z,97174.09
2022-12-23T07:00:00.572Z,97187.84
2022-12-23T07:02:28.320Z,97200.34
2022-12-23T07:04:56.168Z,97205.81
2022-12-23T07:07:23.796Z,97193.97
2022-12-23T07:09:51.603Z,97180.91
2022-12-23T07:12:19.267Z,97171.31
2022-12-23T07:14:48.185Z,97176.94
2022-12-23T07:17:16.064Z,97187.44
2022-12-23T07:19:44.921Z,97189.56
2022-12-23T07:22:12.533Z,97189.91
2022-12-23T07:24:42.617Z,97197.22
2022-12-23T07:27:10.321Z,97207.38
2022-12-23T07:29:38.183Z,97207.03
2022-12-23T07:32:07.327Z,97207.22
2022-12-23T07:34:35.186Z,97212.94
2022-12-23T07:37:02.852Z,97219.97
2022-12-23T07:39:30.388Z,97222.34
2022-12-23T07:44:45.600Z,97213.81
2022-12-23T07:47:14.595Z,97209.91
2022-12-23T07:49:42.606Z,97191.91
2022-12-23T07:52:10.381Z,97184.44
2022-12-23T07:54:38.077Z,97194.72
2022-12-23T07:57:05.722Z,97202.72
2022-12-23T07:59:33.259Z,97204.00
2022-12-23T08:02:01.035Z,97210.59
2022-12-23T08:04:30.237Z,97206.22
2022-12-23T08:06:57.898Z,97202.06
2022-12-23T08:09:25.505Z,97192.88
2022-12-23T08:11:53.077Z,97190.78
2022-12-23T08:14:20.618Z,97191.38
2022-12-23T08:16:48.702Z,97190.41
2022-12-23T08:19:16.365Z,97189.66
2022-12-23T08:21:45.466Z,97170.53
2022-12-23T08:24:14.417Z,97175.19
2022-12-23T08:26:42.085Z,97187.50
2022-12-23T08:29:09.718Z,97200.25
2022-12-23T08:31:37.410Z,97190.66
2022-12-23T08:34:05.114Z,97194.13
2022-12-23T08:36:35.336Z,97185.38
2022-12-23T08:39:07.345Z,97183.84
2022-12-23T08:41:39.448Z,97197.28
2022-12-23T08:44:07.654Z,97194.59
2022-12-23T08:46:36.170Z,97211.03
2022-12-23T08:49:04.588Z,97200.75
2022-12-23T08:51:32.703Z,97213.38
2022-12-23T08:54:01.804Z,97216.09
2022-12-23T08:56:35.819Z,97209.97
2022-12-23T08:59:04.280Z,97209.97
2022-12-23T09:01:34.490Z,97219.16
2022-12-23T09:04:03.021Z,97226.81
2022-12-23T09:06:35.255Z,97219.88
2022-12-23T09:09:06.032Z,97217.19
2022-12-23T09:11:38.402Z,97218.75
2022-12-23T09:14:07.297Z,97220.28
2022-12-23T09:16:35.897Z,97234.41
2022-12-23T09:19:06.970Z,97220.28
2022-12-23T09:21:37.056Z,97222.97
2022-12-23T09:24:06.686Z,97226.78
2022-12-23T09:26:39.075Z,97228.31
2022-12-23T09:29:08.411Z,97228.28
2022-12-23T09:31:37.853Z,97238.25
2022-12-23T09:34:06.845Z,97231.00
2022-12-23T09:36:38.216Z,97236.34
2022-12-23T09:39:06.394Z,97244.38
2022-12-23T09:42:10.834Z,97245.47
2022-12-23T09:44:52.338Z,97248.91
2022-12-23T09:47:25.408Z,97246.97
2022-12-23T09:50:19.071Z,97241.16
2022-12-23T09:53:02.232Z,97231.88
2022-12-23T09:55:46.495Z,97241.88
2022-12-23T09:58:28.655Z,97233.31
2022-12-23T10:01:13.124Z,97231.88
2022-12-23T10:04:07.050Z,97228.56
2022-12-23T10:06:41.448Z,97234.78
2022-12-23T10:09:12.180Z,97221.78
2022-12-23T10:11:45.367Z,97224.16
2022-12-23T10:14:23.660Z,97224.88
2022-12-23T10:16:58.275Z,97220.31
2022-12-23T10:19:34.077Z,97224.16
2022-12-23T10:22:04.450Z,97216.91
2022-12-23T10:24:38.181Z,97213.88
2022-12-23T10:27:18.200Z,97225.00
2022-12-23T10:29:47.928Z,97196.97
2022-12-23T10:32:29.997Z,97223.78
2022-12-23T10:35:07.419Z,97227.28
2022-12-23T10:37:48.017Z,97220.00
2022-12-23T10:40:25.920Z,97217.72
2022-12-23T10:43:08.239Z,97228.03
2022-12-23T10:45:57.929Z,97220.78
2022-12-23T10:48:51.889Z,97217.31
2022-12-23T10:51:31.187Z,97220.00
2022-12-23T10:54:06.846Z,97214.22
2022-12-23T10:56:35.530Z,97213.88
2022-12-23T10:59:05.608Z,97209.31
2022-12-23T11:01:35.496Z,97215.78
2022-12-23T11:04:13.349Z,97218.47
2022-12-23T11:06:47.860Z,97198.59
2022-12-23T11:09:22.349Z,97215.03
2022-12-23T11:11:58.679Z,97215.44
2022-12-23T11:14:35.029Z,97214.63
2022-12-23T11:17:16.574Z,97204.72
2022-12-23T11:19:46.575Z,97215.78
2022-12-23T11:22:23.622Z,97211.19
2022-12-23T11:24:52.846Z,97213.09
2022-12-23T11:27:20.592Z,97205.06
2022-12-23T11:29:52.065Z,97212.75
2022-12-23T11:32:24.939Z,97211.56
2022-12-23T11:34:56.395Z,97223.47
2022-12-23T11:37:31.924Z,97218.88
2022-12-23T11:40:00.206Z,97222.69
2022-12-23T11:42:30.427Z,97226.16
2022-12-23T11:45:00.563Z,97225.34
2022-12-23T11:47:37.919Z,97226.50
2022-12-23T11:50:29.933Z,97221.53
2022-12-23T11:53:09.474Z,97218.41
2022-12-23T11:55:44.424Z,97223.44
2022-12-23T11:58:21.345Z,97216.91
2022-12-23T12:00:56.536Z,97229.13
2022-12-23T12:03:30.796Z,97221.91
2022-12-23T12:06:03.947Z,97222.31
2022-12-23T12:08:35.945Z,97216.16
2022-12-23T12:11:13.543Z,97218.81
2022-12-23T12:13:46.060Z,97217.31
2022-12-23T12:16:35.191Z,97210.81
2022-12-23T12:19:10.477Z,97207.00
2022-12-23T12:21:42.600Z,97209.28
2022-12-23T12:24:22.313Z,97211.94
2022-12-23T12:26:57.665Z,97220.78
2022-12-23T12:29:33.193Z,97213.88
2022-12-23T12:32:03.755Z,97216.19
2022-12-23T12:34:45.237Z,97221.91
2022-12-23T12:37:26.814Z,97216.50
2022-12-23T12:40:00.356Z,97210.38
2022-12-23T12:42:38.008Z,97208.44
2022-12-23T12:45:17.567Z,97209.50
2022-12-23T12:48:10.310Z,97209.97
2022-12-23T12:51:02.573Z,97213.81
2022-12-23T12:53:33.503Z,97216.53
2022-12-23T12:56:24.789Z,97211.94
2022-12-23T12:58:52.528Z,97202.78
2022-12-23T13:01:37.721Z,97205.84
2022-12-23T13:04:41.401Z,97196.66
2022-12-23T13:07:26.592Z,97187.47
2022-12-23T13:10:05.345Z,97177.50
2022-12-23T13:12:47.964Z,97169.09
2022-12-23T13:15:23.997Z,97167.16
2022-12-23T13:18:11.592Z,97160.22
2022-12-23T13:20:48.427Z,97167.47
2022-12-23T13:23:42.786Z,97161.78
2022-12-23T13:26:21.667Z,97153.75
2022-12-23T13:29:02.577Z,97158.69
2022-12-23T13:31:48.698Z,97160.56
2022-12-23T13:34:30.568Z,97157.13
2022-12-23T13:37:13.434Z,97161.72
2022-12-23T13:39:57.477Z,97157.09
2022-12-23T13:42:32.413Z,97170.53
2022-12-23T13:45:03.118Z,97179.72
2022-12-23T13:47:49.544Z,97176.28
2022-12-23T13:50:31.613Z,97183.97
2022-12-23T13:53:18.994Z,97172.47
2022-12-23T13:56:10.367Z,97182.06
2022-12-23T13:58:43.588Z,97178.25
2022-12-23T14:01:32.660Z,97173.63
2022-12-23T14:04:32.838Z,97173.25
2022-12-23T14:07:04.202Z,97171.38
2022-12-23T14:09:36.802Z,97172.91
2022-12-23T14:12:21.544Z,97172.53
2022-12-23T14:15:21.503Z,97163.34
2022-12-23T14:18:09.678Z,97176.75
2022-12-23T14:20:50.190Z,97165.28
2022-12-23T14:23:46.154Z,97179.84
2022-12-23T14:26:39.151Z,97180.56
2022-12-23T14:29:34.871Z,97181.72
2022-12-23T14:32:02.842Z,97188.63
2022-12-23T14:34:32.715Z,97194.72
2022-12-23T14:37:35.721Z,97187.84
2022-12-23T14:40:40.862Z,97185.94
2022-12-23T14:43:32.099Z,97177.16
2022-12-23T14:46:02.736Z,97172.91
2022-12-23T14:52:34.534Z,97184.78
2022-12-23T14:55:40.732Z,97195.50
2022-12-23T14:58:26.372Z,97188.97
2022-12-23T15:01:03.030Z,97187.47
2022-12-23T15:03:40.295Z,97194.00
2022-12-23T15:06:08.361Z,97189.75
2022-12-23T15:08:41.140Z,97187.88
2022-12-23T15:11:21.167Z,97181.72
2022-12-23T15:13:52.022Z,97185.56
2022-12-23T15:16:30.657Z,97191.69
2022-12-23T15:19:02.446Z,97188.63
2022-12-23T15:21:33.633Z,97196.66
2022-12-23T15:24:01.652Z,97199.34
2022-12-23T15:26:32.787Z,97203.94
2022-12-23T15:29:01.112Z,97203.56
2022-12-23T15:31:36.074Z,97201.63
2022-12-23T15:34:16.837Z,97209.31
2022-12-23T15:36:51.674Z,97216.19
2022-12-23T15:39:32.220Z,97212.34
2022-12-23T15:42:00.550Z,97199.72
2022-12-23T15:44:36.619Z,97210.81
2022-12-23T15:47:23.962Z,97220.00
2022-12-23T15:49:51.817Z,97209.28
2022-12-23T15:52:21.020Z,97209.66
2022-12-23T15:54:56.835Z,97222.69
2022-12-23T15:57:28.259Z,97212.31
2022-12-23T15:59:58.390Z,97218.47
2022-12-23T16:02:59.556Z,97211.94
2022-12-23T16:05:28.743Z,97210.00
2022-12-23T16:08:10.024Z,97222.66
2022-12-23T16:10:38.804Z,97229.59
2022-12-23T16:13:17.000Z,97232.28
2022-12-23T16:15:45.049Z,97212.34
2022-12-23T16:18:20.935Z,97238.41
2022-12-23T16:20:52.815Z,97225.38
2022-12-23T16:23:21.974Z,97213.88
2022-12-23T16:25:52.864Z,97220.41
2022-12-23T16:28:26.063Z,97219.63
2022-12-23T16:30:57.430Z,97218.09
2022-12-23T16:33:35.778Z,97210.84
2022-12-23T16:36:17.725Z,97216.94
2022-12-23T16:38:46.692Z,97214.28
2022-12-23T16:41:15.397Z,97206.59
2022-12-23T16:43:51.252Z,97211.19
2022-12-23T16:46:22.090Z,97207.38
2022-12-23T16:48:55.438Z,97204.31
2022-12-23T16:51:27.732Z,97213.50
2022-12-23T16:53:58.324Z,97221.56
2022-12-23T16:56:33.894Z,97232.28
2022-12-23T16:59:03.655Z,97237.25
2022-12-23T17:01:36.535Z,97221.56
2022-12-23T17:04:07.120Z,97213.50
2022-12-23T17:06:35.852Z,97196.28
2022-12-23T17:09:07.596Z,97193.59
2022-12-23T17:11:40.162Z,97195.13
2022-12-23T17:14:15.935Z,97213.13
2022-12-23T17:16:46.043Z,97210.06
2022-12-23T17:19:15.613Z,97217.72
2022-12-23T17:21:46.774Z,97231.88
2022-12-23T17:24:22.637Z,97228.44
2022-12-23T17:26:51.526Z,97217.34
2022-12-23T17:29:19.977Z,97226.16
2022-12-23T17:31:50.319Z,97225.75
2022-12-23T17:34:23.028Z,97215.78
2022-12-23T17:36:51.685Z,97221.91
2022-12-23T17:39:22.013Z,97225.34
2022-12-23T17:41:51.470Z,97238.00
2022-12-23T17:44:19.707Z,97247.94
2022-12-23T17:46:51.102Z,97244.50
2022-12-23T17:49:27.391Z,97241.47
2022-12-23T17:51:55.470Z,97244.50
2022-12-23T17:54:26.118Z,97241.06
2022-12-23T17:56:53.972Z,97244.91
2022-12-23T17:59:21.744Z,97262.13
2022-12-23T18:01:51.376Z,97270.53
2022-12-23T18:04:19.310Z,97303.03
2022-12-23T18:06:48.346Z,97306.03
2022-12-23T18:09:16.006Z,97306.06
2022-12-23T18:11:46.619Z,97304.56
2022-12-23T18:14:17.674Z,97300.34
2022-12-23T18:16:45.544Z,97298.00
2022-12-23T18:19:18.059Z,97301.84
2022-12-23T18:21:46.176Z,97304.22
2022-12-23T18:24:15.829Z,97299.59
2022-12-23T18:26:44.018Z,97299.19
2022-12-23T18:29:12.322Z,97300.34
2022-12-23T18:31:51.029Z,97315.69
2022-12-23T18:34:20.598Z,97328.31
2022-12-23T18:36:48.951Z,97331.75
2022-12-23T18:39:18.081Z,97333.34
2022-12-23T18:41:50.068Z,97330.91
2022-12-23T18:44:19.506Z,97329.88
2022-12-23T18:46:49.848Z,97333.34
2022-12-23T18:49:20.649Z,97328.00
2022-12-23T18:51:48.383Z,97337.91
2022-12-23T18:54:17.840Z,97336.03
2022-12-23T18:56:46.033Z,97329.94
2022-12-23T18:59:24.349Z,97334.16
2022-12-23T19:01:57.406Z,97339.88
2022-12-23T19:04:25.959Z,97341.03
2022-12-23T19:06:54.909Z,97326.47
2022-12-23T19:09:24.968Z,97322.25
2022-12-23T19:11:54.398Z,97305.41
2022-12-23T19:14:22.305Z,97294.66
2022-12-23T19:16:52.209Z,97282.38
2022-12-23T19:19:20.606Z,97282.78
2022-12-23T19:21:48.753Z,97282.03
2022-12-23T19:24:16.555Z,97263.25
2022-12-23T19:26:46.434Z,97273.59
2022-12-23T19:29:14.373Z,97262.88
2022-12-23T19:31:42.585Z,97269.03
2022-12-23T19:34:15.053Z,97265.97
2022-12-23T19:36:43.756Z,97282.81
2022-12-23T19:39:12.450Z,97300.44
2022-12-23T19:41:40.453Z,97312.69
2022-12-23T19:44:10.393Z,97317.25
2022-12-23T19:46:38.146Z,97300.44
2022-12-23T19:49:06.394Z,97283.19
2022-12-23T19:51:34.056Z,97272.09
2022-12-23T19:54:02.056Z,97264.81
2022-12-23T19:56:30.001Z,97261.00
2022-12-23T19:58:59.160Z,97257.50
2022-12-23T20:01:28.536Z,97275.91
2022-12-23T20:03:56.560Z,97286.63
2022-12-23T20:06:27.830Z,97255.63
2022-12-23T20:09:00.321Z,97243.72
2022-12-23T20:11:29.037Z,97242.97
2022-12-23T20:13:56.697Z,97243.69
2022-12-23T20:16:25.973Z,97247.44
2022-12-23T20:18:56.286Z,97268.84
2022-12-23T20:21:24.323Z,97267.75
2022-12-23T20:23:52.443Z,97266.94
2022-12-23T20:26:20.787Z,97280.19
2022-12-23T20:28:48.687Z,97272.78
2022-12-23T20:31:20.213Z,97276.38
2022-12-23T20:33:49.563Z,97256.84
2022-12-23T20:36:21.162Z,97268.75
2022-12-23T20:38:49.148Z,97270.34
2022-12-23T20:41:19.211Z,97276.91
2022-12-23T20:44:02.717Z,97257.06
2022-12-23T20:46:35.712Z,97252.94
2022-12-23T20:49:03.530Z,97264.78
2022-12-23T20:51:34.882Z,97268.22
2022-12-23T20:54:05.246Z,97264.03
2022-12-23T20:56:32.897Z,97259.06
2022-12-23T20:59:01.797Z,97254.88
2022-12-23T21:01:31.593Z,97269.78
2022-12-23T21:04:03.790Z,97269.78
2022-12-23T21:06:34.088Z,97265.19
2022-12-23T21:09:04.582Z,97259.84
2022-12-23T21:11:38.838Z,97265.19
2022-12-23T21:14:07.739Z,97259.06
2022-12-23T21:16:37.805Z,97255.22
2022-12-23T21:19:06.480Z,97258.31
2022-12-23T21:21:38.369Z,97251.41
2022-12-23T21:24:06.660Z,97246.81
2022-12-23T21:26:35.166Z,97246.03
2022-12-23T21:29:06.310Z,97242.19
2022-12-23T21:31:37.929Z,97252.94
2022-12-23T21:34:06.588Z,97267.50
2022-12-23T21:36:38.541Z,97269.78
2022-12-23T21:39:10.478Z,97260.22
2022-12-23T21:41:40.097Z,97263.66
2022-12-23T21:44:10.223Z,97272.88
2022-12-23T21:46:39.081Z,97271.31
2022-12-23T21:49:06.832Z,97265.59
2022-12-23T21:51:40.319Z,97282.81
2022-12-23T21:54:10.886Z,97280.53
2022-12-23T21:56:40.351Z,97286.66
2022-12-23T21:59:13.833Z,97270.94
2022-12-23T22:01:42.689Z,97271.31
2022-12-23T22:04:11.414Z,97262.13
2022-12-23T22:06:42.697Z,97250.63
2022-12-23T22:09:13.154Z,97245.66
2022-12-23T22:11:41.699Z,97243.75
2022-12-23T22:14:13.568Z,97256.78
2022-12-23T22:16:41.441Z,97252.19
2022-12-23T22:19:11.052Z,97253.69
2022-12-23T22:21:40.303Z,97255.22
2022-12-23T22:24:08.728Z,97258.31
2022-12-23T22:26:38.697Z,97254.84
2022-12-23T22:29:06.657Z,97243.34
2022-12-23T22:31:38.317Z,97253.31
2022-12-23T22:34:08.215Z,97247.94
2022-12-23T22:36:36.570Z,97220.00
2022-12-23T22:39:07.842Z,97234.53
2022-12-23T22:41:35.819Z,97241.81
2022-12-23T22:44:03.646Z,97235.66
2022-12-23T22:46:31.797Z,97246.03
2022-12-23T22:48:59.699Z,97249.84
2022-12-23T22:51:29.500Z,97250.59
2022-12-23T22:53:59.072Z,97254.44
2022-12-23T22:56:28.392Z,97262.13
2022-12-23T22:58:56.080Z,97269.78
2022-12-23T23:01:26.211Z,97274.75
2022-12-23T23:03:56.677Z,97266.69
2022-12-23T23:06:26.421Z,97257.16
2022-12-23T23:08:54.481Z,97270.19
2022-12-23T23:11:23.289Z,97273.22
2022-12-23T23:13:52.375Z,97282.03
2022-12-23T23:16:20.666Z,97280.53
2022-12-23T23:18:48.583Z,97280.53
2022-12-23T23:21:17.283Z,97288.16
2022-12-23T23:23:45.556Z,97298.91
2022-12-23T23:26:14.029Z,97305.00
2022-12-23T23:28:43.100Z,97309.25
2022-12-23T23:34:00.622Z,97322.25
2022-12-23T23:36:28.464Z,97331.78
2022-12-23T23:38:56.483Z,97344.09
2022-12-23T23:41:24.405Z,97333.38
2022-12-23T23:43:52.180Z,97332.19
2022-12-23T23:46:21.296Z,97335.28
2022-12-23T23:48:49.078Z,97334.88
2022-12-23T23:51:16.829Z,97345.22
2022-12-23T23:53:44.709Z,97351.72
2022-12-23T23:56:12.572Z,97348.69
2022-12-23T23:58:40.278Z,97350.56
